Time;durP1;ratioP1;P1;durP2;ratioP2;P2;SDS_P1;SDS_P2;PMS_P1;PMS_P2;Temp;Humidity;BMP_temperature;BMP_pressure;BME280_temperature;BME280_humidity;BME280_pressure;Samples;Min_cycle;Max_cycle;Signal;HPM_P1;HPM_P2
2023/06/07 00:01:42;;;;;;;;;;;15.90;99.90;;;;;;5032665;28;19916;-62
2023/06/07 00:04:11;;;;;;;;;;;16.00;99.90;;;;;;5027112;28;20067;-63
2023/06/07 00:06:39;;;;;;;;;;;16.10;99.90;;;;;;5012051;28;20008;-61
2023/06/07 00:09:07;;;;;;;;;;;16.20;99.90;;;;;;5027085;28;20381;-62
2023/06/07 00:11:34;;;;;;;;;;;16.30;99.90;;;;;;5012568;28;19987;-61
2023/06/07 00:14:00;;;;;;;;;;;16.40;99.90;;;;;;5020661;28;19964;-63
2023/06/07 00:16:27;;;;;;;;;;;16.40;99.90;;;;;;5011851;28;19913;-61
2023/06/07 00:18:54;;;;;;;;;;;16.60;99.90;;;;;;5020460;28;19913;-61
2023/06/07 00:21:22;;;;;;;;;;;16.60;99.90;;;;;;5031819;28;20464;-62
2023/06/07 00:23:48;;;;;;;;;;;16.80;99.90;;;;;;5032034;28;19909;-61
2023/06/07 00:26:15;;;;;;;;;;;16.90;99.90;;;;;;5031118;28;20008;-61
2023/06/07 00:28:42;;;;;;;;;;;17.00;99.90;;;;;;5031493;28;20259;-61
2023/06/07 00:31:08;;;;;;;;;;;17.10;99.90;;;;;;5031347;28;19916;-61
2023/06/07 00:33:35;;;;;;;;;;;17.10;99.90;;;;;;5030813;28;19913;-61
2023/06/07 00:36:02;;;;;;;;;;;17.20;99.90;;;;;;5030738;28;20008;-61
2023/06/07 00:38:29;;;;;;;;;;;17.40;99.90;;;;;;5031252;28;19910;-61
2023/06/07 00:40:55;;;;;;;;;;;17.40;99.90;;;;;;5031961;28;19909;-61
2023/06/07 00:43:24;;;;;;;;;;;17.60;99.90;;;;;;5027766;28;19910;-60
2023/06/07 00:45:51;;;;;;;;;;;17.70;99.90;;;;;;5012040;28;20339;-61
2023/06/07 00:48:18;;;;;;;;;;;17.90;99.90;;;;;;5011458;28;19927;-60
2023/06/07 00:50:45;;;;;;;;;;;17.90;99.90;;;;;;5029723;28;20381;-61
2023/06/07 00:53:11;;;;;;;;;;;18.00;99.90;;;;;;5029334;28;19927;-61
2023/06/07 00:55:38;;;;;;;;;;;18.20;99.90;;;;;;5031380;28;19916;-60
2023/06/07 00:58:05;;;;;;;;;;;18.20;99.90;;;;;;5030879;28;19913;-62
2023/06/07 01:00:32;;;;;;;;;;;18.20;99.90;;;;;;5030288;28;19929;-68
2023/06/07 01:02:59;;;;;;;;;;;18.30;99.90;;;;;;5030883;28;20011;-64
2023/06/07 01:05:25;;;;;;;;;;;18.30;99.90;;;;;;5011679;28;19910;-64
2023/06/07 01:07:54;;;;;;;;;;;18.40;99.90;;;;;;5025153;28;19916;-65
2023/06/07 01:10:21;;;;;;;;;;;18.50;99.90;;;;;;5031379;28;19909;-68
2023/06/07 01:12:49;;;;;;;;;;;18.80;99.90;;;;;;5031102;28;19909;-67
2023/06/07 01:15:16;;;;;;;;;;;19.10;99.90;;;;;;5012959;28;19913;-66
2023/06/07 01:17:44;;;;;;;;;;;19.30;99.90;;;;;;5021481;28;19924;-72
2023/06/07 01:20:12;;;;;;;;;;;19.40;99.90;;;;;;5031589;28;19999;-69
2023/06/07 01:22:42;;;;;;;;;;;19.60;99.90;;;;;;5031700;28;19915;-67
2023/06/07 01:25:09;;;;;;;;;;;19.60;99.90;;;;;;5030140;28;19916;-70
2023/06/07 01:27:37;;;;;;;;;;;19.70;99.90;;;;;;5012525;28;20365;-69
2023/06/07 01:30:04;;;;;;;;;;;19.70;99.90;;;;;;5014788;28;19914;-68
2023/06/07 01:32:32;;;;;;;;;;;19.80;99.90;;;;;;5028176;28;20374;-66
2023/06/07 01:34:58;;;;;;;;;;;19.90;99.90;;;;;;5018315;28;19956;-69
2023/06/07 01:37:25;;;;;;;;;;;19.90;99.90;;;;;;5033516;28;19909;-64
2023/06/07 01:39:53;;;;;;;;;;;19.90;99.90;;;;;;5033589;28;19940;-62
2023/06/07 01:42:20;;;;;;;;;;;20.00;99.90;;;;;;5034607;28;19913;-64
2023/06/07 01:44:47;;;;;;;;;;;20.00;99.90;;;;;;5026419;28;19996;-64
2023/06/07 01:47:14;;;;;;;;;;;20.20;99.90;;;;;;5035231;28;19909;-64
2023/06/07 01:49:42;;;;;;;;;;;20.30;99.90;;;;;;5034707;28;20424;-65
2023/06/07 01:52:08;;;;;;;;;;;20.40;99.90;;;;;;5035144;28;20004;-65
2023/06/07 01:54:35;;;;;;;;;;;20.50;99.90;;;;;;5034419;28;19916;-65
2023/06/07 01:57:21;;;;;;;;;;;20.80;99.90;;;;;;5034621;28;20378;-64
2023/06/07 02:00:09;;;;;;;;;;;20.90;99.90;;;;;;5032764;28;19921;-64
2023/06/07 02:02:42;;;;;;;;;;;21.00;99.90;;;;;;5033428;28;19909;-62
2023/06/07 02:05:15;;;;;;;;;;;21.00;99.90;;;;;;5032486;28;20317;-63
2023/06/07 02:07:53;;;;;;;;;;;21.00;99.90;;;;;;5035465;28;19920;-64
2023/06/07 02:10:21;;;;;;;;;;;21.10;99.90;;;;;;5033621;28;19953;-64
2023/06/07 02:12:50;;;;;;;;;;;21.00;99.90;;;;;;5023380;28;19909;-66
2023/06/07 02:15:16;;;;;;;;;;;21.00;99.90;;;;;;5033541;28;19916;-63
2023/06/07 02:17:49;;;;;;;;;;;21.10;99.90;;;;;;5033469;28;19948;-63
2023/06/07 02:20:16;;;;;;;;;;;21.20;99.90;;;;;;5032414;28;20378;-62
2023/06/07 02:22:43;;;;;;;;;;;21.20;99.90;;;;;;5032869;28;20008;-66
2023/06/07 02:25:10;;;;;;;;;;;21.20;99.90;;;;;;5015847;28;19910;-62
2023/06/07 02:27:37;;;;;;;;;;;21.20;99.90;;;;;;5014196;28;19909;-62
2023/06/07 02:30:03;;;;;;;;;;;21.20;99.90;;;;;;5013474;28;19924;-64
2023/06/07 02:32:33;;;;;;;;;;;21.60;99.90;;;;;;5016353;28;19913;-63
2023/06/07 02:34:59;;;;;;;;;;;22.00;99.90;;;;;;5032497;28;19932;-63
2023/06/07 02:37:26;;;;;;;;;;;21.90;99.90;;;;;;5033473;28;19936;-62
2023/06/07 02:39:53;;;;;;;;;;;21.70;99.90;;;;;;5032214;28;19931;-64
2023/06/07 02:42:19;;;;;;;;;;;21.60;99.90;;;;;;5033010;28;20357;-61
2023/06/07 02:44:46;;;;;;;;;;;21.40;99.90;;;;;;5032342;28;19931;-62
2023/06/07 02:47:13;;;;;;;;;;;21.40;99.90;;;;;;5033615;28;19909;-63
2023/06/07 02:49:39;;;;;;;;;;;21.40;99.90;;;;;;5033324;28;19976;-62
2023/06/07 02:52:06;;;;;;;;;;;21.30;99.90;;;;;;5032794;28;19917;-64
2023/06/07 02:54:36;;;;;;;;;;;21.20;99.90;;;;;;5020626;28;19917;-63
2023/06/07 02:57:03;;;;;;;;;;;21.60;99.90;;;;;;5014337;28;19924;-64
2023/06/07 02:59:30;;;;;;;;;;;22.10;99.90;;;;;;5013278;28;19913;-62
2023/06/07 03:01:56;;;;;;;;;;;22.80;99.90;;;;;;5013042;28;19917;-63
2023/06/07 03:04:25;;;;;;;;;;;23.30;99.80;;;;;;5023532;28;19925;-63
2023/06/07 03:06:53;;;;;;;;;;;23.90;99.20;;;;;;5031367;28;19935;-65
2023/06/07 03:09:20;;;;;;;;;;;24.10;98.80;;;;;;5032602;28;20374;-63
2023/06/07 03:11:47;;;;;;;;;;;23.90;98.20;;;;;;5032553;28;19909;-62
2023/06/07 03:14:13;;;;;;;;;;;23.60;98.30;;;;;;5022820;28;20385;-63
2023/06/07 03:16:40;;;;;;;;;;;23.30;98.90;;;;;;5023199;28;19913;-64
2023/06/07 03:19:07;;;;;;;;;;;23.10;99.60;;;;;;5022344;28;20020;-64
2023/06/07 03:21:33;;;;;;;;;;;23.40;99.20;;;;;;5012959;28;20382;-61
2023/06/07 03:24:00;;;;;;;;;;;23.90;99.10;;;;;;5027502;28;20012;-63
2023/06/07 03:26:26;;;;;;;;;;;24.70;97.70;;;;;;5032929;28;19909;-63
2023/06/07 03:28:54;;;;;;;;;;;25.00;97.10;;;;;;5032956;28;19956;-64
2023/06/07 03:31:21;;;;;;;;;;;25.10;96.90;;;;;;5032702;28;20354;-65
2023/06/07 03:33:47;;;;;;;;;;;25.50;96.60;;;;;;5032027;28;20362;-63
2023/06/07 03:36:20;;;;;;;;;;;26.00;95.90;;;;;;5018735;28;20448;-63
2023/06/07 03:38:47;;;;;;;;;;;26.90;94.00;;;;;;5022845;28;19964;-65
2023/06/07 03:41:14;;;;;;;;;;;27.70;93.20;;;;;;5032575;28;19925;-63
2023/06/07 03:43:40;;;;;;;;;;;28.40;91.80;;;;;;5026315;28;19914;-64
2023/06/07 03:46:07;;;;;;;;;;;28.20;91.60;;;;;;5012841;28;19917;-64
2023/06/07 03:48:34;;;;;;;;;;;28.30;91.40;;;;;;5012546;28;19928;-67
2023/06/07 03:51:00;;;;;;;;;;;28.40;91.00;;;;;;5020544;28;19909;-65
2023/06/07 03:53:27;;;;;;;;;;;29.10;90.10;;;;;;5027878;28;20354;-63
2023/06/07 03:55:54;;;;;;;;;;;29.80;88.30;;;;;;5024987;28;19988;-65
2023/06/07 03:58:21;;;;;;;;;;;30.00;87.10;;;;;;5032140;28;19910;-66
2023/06/07 04:00:48;;;;;;;;;;;30.50;85.10;;;;;;5031999;28;20019;-63
2023/06/07 04:03:14;;;;;;;;;;;30.20;85.60;;;;;;5021661;28;19920;-65
2023/06/07 04:05:41;;;;;;;;;;;30.60;83.70;;;;;;5018319;28;19916;-65
2023/06/07 04:08:09;;;;;;;;;;;30.00;84.70;;;;;;5026603;28;19913;-62
2023/06/07 04:10:36;;;;;;;;;;;29.30;85.50;;;;;;5027496;28;19913;-62
2023/06/07 04:13:03;;;;;;;;;;;28.40;87.70;;;;;;5031621;28;19913;-64
2023/06/07 04:15:29;;;;;;;;;;;27.70;88.20;;;;;;5019152;28;19918;-64
2023/06/07 04:17:56;;;;;;;;;;;26.20;90.80;;;;;;5028007;28;20351;-64
2023/06/07 04:20:23;;;;;;;;;;;24.80;93.00;;;;;;5031837;28;19917;-63
2023/06/07 04:22:52;;;;;;;;;;;24.10;93.90;;;;;;5029507;28;19917;-65
2023/06/07 04:25:22;;;;;;;;;;;23.30;95.10;;;;;;5012864;28;20004;-64
2023/06/07 04:27:49;;;;;;;;;;;22.80;96.20;;;;;;5012366;28;20422;-66
2023/06/07 04:30:18;;;;;;;;;;;22.60;96.80;;;;;;5024299;28;19913;-63
2023/06/07 04:32:46;;;;;;;;;;;22.40;97.20;;;;;;5012246;28;19917;-64
2023/06/07 04:35:14;;;;;;;;;;;22.00;97.70;;;;;;5011420;28;19975;-63
2023/06/07 04:37:45;;;;;;;;;;;21.90;98.30;;;;;;5012082;28;19917;-62
2023/06/07 04:40:14;;;;;;;;;;;21.80;98.20;;;;;;5011981;28;19917;-63
2023/06/07 04:42:46;;;;;;;;;;;21.80;98.80;;;;;;5010498;28;19918;-64
2023/06/07 04:45:13;;;;;;;;;;;21.80;98.70;;;;;;5027559;28;20634;-63
2023/06/07 04:47:40;;;;;;;;;;;21.60;98.70;;;;;;5029789;28;19909;-65
2023/06/07 04:50:08;;;;;;;;;;;21.70;98.80;;;;;;5029663;28;19927;-64
2023/06/07 04:52:38;;;;;;;;;;;21.60;98.40;;;;;;5029690;28;19963;-67
2023/06/07 04:55:05;;;;;;;;;;;21.50;98.50;;;;;;5027448;28;20391;-65
2023/06/07 04:57:32;;;;;;;;;;;21.50;98.60;;;;;;5031308;28;19998;-65
2023/06/07 04:59:59;;;;;;;;;;;21.40;99.30;;;;;;5013941;28;19928;-68
2023/06/07 05:02:26;;;;;;;;;;;21.40;99.30;;;;;;5012118;28;19909;-63
2023/06/07 05:04:53;;;;;;;;;;;21.30;99.30;;;;;;5020672;28;19960;-63
2023/06/07 05:07:19;;;;;;;;;;;21.30;99.40;;;;;;5034857;28;19915;-65
2023/06/07 05:09:46;;;;;;;;;;;21.20;99.70;;;;;;5034679;28;20350;-62
2023/06/07 05:12:13;;;;;;;;;;;21.10;99.50;;;;;;5035361;28;20127;-66
2023/06/07 05:14:40;;;;;;;;;;;21.30;99.90;;;;;;5034564;28;20317;-66
2023/06/07 05:17:07;;;;;;;;;;;21.40;99.20;;;;;;5034802;28;19913;-64
2023/06/07 05:19:34;;;;;;;;;;;21.40;99.00;;;;;;5028701;28;19925;-65
2023/06/07 05:22:00;;;;;;;;;;;21.40;99.60;;;;;;5024736;28;19913;-67
2023/06/07 05:24:27;;;;;;;;;;;21.20;99.80;;;;;;5018443;28;19914;-64
2023/06/07 05:26:54;;;;;;;;;;;21.10;99.40;;;;;;4998188;28;19924;-62
2023/06/07 05:29:20;;;;;;;;;;;21.00;99.90;;;;;;5014908;28;19917;-64
2023/06/07 05:31:47;;;;;;;;;;;20.90;99.50;;;;;;5032108;28;19914;-63
2023/06/07 05:34:13;;;;;;;;;;;20.90;99.40;;;;;;5020267;28;20414;-66
2023/06/07 05:36:40;;;;;;;;;;;21.00;99.40;;;;;;5014797;28;19921;-62
2023/06/07 05:39:07;;;;;;;;;;;21.00;99.50;;;;;;5015061;28;19925;-62
2023/06/07 05:41:33;;;;;;;;;;;21.20;99.40;;;;;;5016277;28;19949;-61
2023/06/07 05:44:00;;;;;;;;;;;21.30;98.60;;;;;;5027354;28;19910;-62
2023/06/07 05:46:27;;;;;;;;;;;21.40;98.70;;;;;;5033088;28;19940;-62
2023/06/07 05:48:54;;;;;;;;;;;21.50;98.40;;;;;;5028193;28;19922;-62
2023/06/07 05:51:22;;;;;;;;;;;21.30;98.70;;;;;;4997064;28;19913;-61
2023/06/07 05:53:48;;;;;;;;;;;21.20;99.20;;;;;;5028060;28;19909;-66
2023/06/07 05:56:20;;;;;;;;;;;21.40;99.10;;;;;;5031543;28;19969;-65
2023/06/07 05:58:49;;;;;;;;;;;21.40;99.00;;;;;;5033027;28;19909;-62
2023/06/07 06:01:17;;;;;;;;;;;21.50;98.50;;;;;;5033254;28;20031;-61
2023/06/07 06:03:43;;;;;;;;;;;21.50;98.90;;;;;;5028155;28;19913;-62
2023/06/07 06:06:16;;;;;;;;;;;21.60;99.20;;;;;;5033260;28;20011;-65
2023/06/07 06:08:43;;;;;;;;;;;21.90;98.40;;;;;;5032840;28;19924;-64
2023/06/07 06:11:11;;;;;;;;;;;21.80;98.30;;;;;;5033430;28;19920;-61
2023/06/07 06:13:38;;;;;;;;;;;21.50;99.00;;;;;;5027275;28;19917;-64
2023/06/07 06:16:05;;;;;;;;;;;21.60;99.20;;;;;;5032324;28;19909;-66
2023/06/07 06:18:32;;;;;;;;;;;21.40;99.50;;;;;;5032951;28;19909;-66
2023/06/07 06:20:58;;;;;;;;;;;21.20;99.80;;;;;;5032278;28;19920;-66
2023/06/07 06:23:25;;;;;;;;;;;20.80;99.90;;;;;;5030198;28;19913;-64
2023/06/07 06:25:52;;;;;;;;;;;20.50;99.90;;;;;;5033590;28;20322;-62
2023/06/07 06:28:20;;;;;;;;;;;20.30;99.90;;;;;;5032121;28;19963;-65
2023/06/07 06:30:47;;;;;;;;;;;20.10;99.90;;;;;;5033176;28;19909;-64
2023/06/07 06:33:13;;;;;;;;;;;19.80;99.90;;;;;;5032205;28;20374;-63
2023/06/07 06:35:40;;;;;;;;;;;19.50;99.90;;;;;;5032555;28;19913;-64
2023/06/07 06:38:07;;;;;;;;;;;19.20;99.90;;;;;;5032387;28;19952;-63
2023/06/07 06:40:33;;;;;;;;;;;19.00;99.90;;;;;;5032907;28;20342;-61
2023/06/07 06:43:00;;;;;;;;;;;18.70;99.90;;;;;;5032184;28;20275;-62
2023/06/07 06:45:27;;;;;;;;;;;18.60;99.90;;;;;;5012863;28;19931;-61
2023/06/07 06:47:54;;;;;;;;;;;18.50;99.90;;;;;;5022901;28;19916;-63
2023/06/07 06:50:20;;;;;;;;;;;18.50;99.90;;;;;;5021021;28;20283;-66
2023/06/07 06:52:47;;;;;;;;;;;18.40;99.90;;;;;;5030690;28;20458;-63
2023/06/07 06:55:14;;;;;;;;;;;18.30;99.90;;;;;;5031091;28;19924;-63
2023/06/07 06:57:40;;;;;;;;;;;18.20;99.90;;;;;;5032476;28;19924;-64
2023/06/07 07:00:11;;;;;;;;;;;18.20;99.90;;;;;;5031341;28;19967;-63
2023/06/07 07:02:38;;;;;;;;;;;18.10;99.90;;;;;;5032078;28;19920;-63
2023/06/07 07:05:09;;;;;;;;;;;18.00;99.90;;;;;;5032050;28;20027;-64
2023/06/07 07:07:35;;;;;;;;;;;18.00;99.90;;;;;;5031659;28;19913;-63
2023/06/07 07:10:02;;;;;;;;;;;17.90;99.90;;;;;;5031489;28;19909;-62
2023/06/07 07:12:29;;;;;;;;;;;17.90;99.90;;;;;;5026580;28;19952;-63
2023/06/07 07:14:56;;;;;;;;;;;17.90;99.90;;;;;;5032291;28;20007;-63
2023/06/07 07:17:22;;;;;;;;;;;17.80;99.90;;;;;;5028190;28;20470;-65
2023/06/07 07:19:49;;;;;;;;;;;17.70;99.90;;;;;;5028271;28;19921;-62
2023/06/07 07:22:16;;;;;;;;;;;17.70;99.90;;;;;;5030764;28;19913;-63
2023/06/07 07:24:42;;;;;;;;;;;17.60;99.90;;;;;;5031430;28;19910;-64
2023/06/07 07:27:09;;;;;;;;;;;17.60;99.90;;;;;;5031182;28;19917;-64
2023/06/07 07:29:35;;;;;;;;;;;17.60;99.90;;;;;;5030841;28;19913;-63
2023/06/07 07:32:02;;;;;;;;;;;17.50;99.90;;;;;;5023653;28;19910;-63
2023/06/07 07:34:29;;;;;;;;;;;17.50;99.90;;;;;;4994947;28;19910;-62
2023/06/07 07:36:57;;;;;;;;;;;17.50;99.90;;;;;;5014748;28;19932;-61
2023/06/07 07:39:25;;;;;;;;;;;17.50;99.90;;;;;;5031586;28;20358;-62
2023/06/07 07:41:52;;;;;;;;;;;17.40;99.90;;;;;;5026786;28;20363;-63
2023/06/07 07:44:18;;;;;;;;;;;17.50;99.90;;;;;;5011509;28;19914;-63
2023/06/07 07:46:45;;;;;;;;;;;17.40;99.90;;;;;;5013903;28;19972;-63
2023/06/07 07:49:12;;;;;;;;;;;17.30;99.90;;;;;;5031587;28;19921;-62
2023/06/07 07:51:38;;;;;;;;;;;17.30;99.90;;;;;;5031018;28;19916;-62
2023/06/07 07:54:06;;;;;;;;;;;17.30;99.90;;;;;;5013881;28;20388;-65
2023/06/07 07:56:32;;;;;;;;;;;17.30;99.90;;;;;;5023119;28;19913;-62
2023/06/07 07:58:59;;;;;;;;;;;17.20;99.90;;;;;;5029783;28;19913;-61
2023/06/07 08:01:26;;;;;;;;;;;17.30;99.90;;;;;;5030511;28;19920;-61
2023/06/07 08:03:52;;;;;;;;;;;17.20;99.90;;;;;;5030578;28;20270;-63
2023/06/07 08:06:19;;;;;;;;;;;17.20;99.90;;;;;;5031593;28;19951;-63
2023/06/07 08:08:49;;;;;;;;;;;17.20;99.90;;;;;;5032005;28;19932;-61
2023/06/07 08:11:15;;;;;;;;;;;17.20;99.90;;;;;;5031712;28;19909;-61
2023/06/07 08:13:42;;;;;;;;;;;17.10;99.90;;;;;;5030773;28;19948;-62
2023/06/07 08:16:08;;;;;;;;;;;17.10;99.90;;;;;;5031349;28;19924;-62
2023/06/07 08:18:35;;;;;;;;;;;17.10;99.90;;;;;;5031648;28;19917;-64
2023/06/07 08:21:03;;;;;;;;;;;17.10;99.90;;;;;;5032092;28;19920;-64
2023/06/07 08:23:30;;;;;;;;;;;17.00;99.90;;;;;;5029818;28;19913;-63
2023/06/07 08:26:00;;;;;;;;;;;17.00;99.90;;;;;;5031618;28;19917;-63
2023/06/07 08:28:27;;;;;;;;;;;17.00;99.90;;;;;;5032052;28;20327;-62
2023/06/07 08:30:54;;;;;;;;;;;17.00;99.90;;;;;;5032675;28;20266;-62
2023/06/07 08:33:20;;;;;;;;;;;17.00;99.90;;;;;;5014188;28;20063;-63
2023/06/07 08:35:47;;;;;;;;;;;16.90;99.90;;;;;;5011505;28;20012;-62
2023/06/07 08:38:14;;;;;;;;;;;16.90;99.90;;;;;;5031366;28;19921;-61
2023/06/07 08:40:40;;;;;;;;;;;16.90;99.90;;;;;;5035593;28;19928;-61
2023/06/07 08:43:07;;;;;;;;;;;16.80;99.90;;;;;;5034876;28;19952;-62
2023/06/07 08:45:34;;;;;;;;;;;16.80;99.90;;;;;;5035492;28;19956;-63
2023/06/07 08:48:05;;;;;;;;;;;16.80;99.90;;;;;;5034805;28;19909;-62
2023/06/07 08:50:32;;;;;;;;;;;16.80;99.90;;;;;;5033650;28;20059;-62
2023/06/07 08:53:01;;;;;;;;;;;16.80;99.90;;;;;;5034608;28;19915;-64
2023/06/07 08:55:30;;;;;;;;;;;16.80;99.90;;;;;;5034605;28;19921;-62
2023/06/07 08:57:56;;;;;;;;;;;16.70;99.90;;;;;;5035115;28;19959;-62
2023/06/07 09:00:24;;;;;;;;;;;16.70;99.90;;;;;;5035563;28;19918;-63
2023/06/07 09:02:53;;;;;;;;;;;16.70;99.90;;;;;;5035612;28;19913;-61
2023/06/07 09:05:21;;;;;;;;;;;16.60;99.90;;;;;;5035528;28;19909;-62
2023/06/07 09:07:52;;;;;;;;;;;16.60;99.90;;;;;;5035532;28;19916;-60
2023/06/07 09:10:19;;;;;;;;;;;16.60;99.90;;;;;;5034546;28;19999;-62
2023/06/07 09:12:46;;;;;;;;;;;16.50;99.90;;;;;;5035413;28;19909;-62
2023/06/07 09:15:18;;;;;;;;;;;16.50;99.90;;;;;;5035282;28;19955;-60
2023/06/07 09:17:52;;;;;;;;;;;16.50;99.90;;;;;;5034142;28;20460;-61
2023/06/07 09:20:20;;;;;;;;;;;16.60;99.90;;;;;;5020995;28;20012;-62
2023/06/07 09:22:56;;;;;;;;;;;16.50;99.90;;;;;;5021242;28;20378;-62
2023/06/07 09:25:23;;;;;;;;;;;16.50;99.90;;;;;;5034626;28;20373;-63
2023/06/07 09:27:53;;;;;;;;;;;16.50;99.90;;;;;;5025299;28;19913;-63
2023/06/07 09:30:20;;;;;;;;;;;16.40;99.90;;;;;;5033814;28;19913;-62
2023/06/07 09:32:47;;;;;;;;;;;16.50;99.90;;;;;;5035214;28;20007;-61
2023/06/07 09:35:14;;;;;;;;;;;16.50;99.90;;;;;;5035427;28;19913;-62
2023/06/07 09:37:45;;;;;;;;;;;16.50;99.90;;;;;;5035299;28;19913;-62
2023/06/07 09:40:13;;;;;;;;;;;16.50;99.90;;;;;;5035148;28;19917;-62
2023/06/07 09:42:40;;;;;;;;;;;16.50;99.90;;;;;;5032198;28;20621;-62
2023/06/07 09:45:14;;;;;;;;;;;16.50;99.90;;;;;;5014987;28;19913;-62
2023/06/07 09:47:42;;;;;;;;;;;16.50;99.90;;;;;;5014855;28;19921;-63
2023/06/07 09:50:12;;;;;;;;;;;16.50;99.90;;;;;;5014987;28;19929;-62
2023/06/07 09:52:40;;;;;;;;;;;16.40;99.90;;;;;;5016132;28;19910;-63
2023/06/07 09:55:08;;;;;;;;;;;16.40;99.90;;;;;;5014564;28;19910;-63
2023/06/07 09:57:37;;;;;;;;;;;16.40;99.90;;;;;;5015286;28;19999;-62
2023/06/07 10:00:13;;;;;;;;;;;16.40;99.90;;;;;;5028909;28;20016;-63
2023/06/07 10:02:43;;;;;;;;;;;16.30;99.90;;;;;;5033433;28;19913;-62
2023/06/07 10:05:12;;;;;;;;;;;16.30;99.90;;;;;;5034380;28;20255;-62
2023/06/07 10:07:42;;;;;;;;;;;16.30;99.90;;;;;;5034416;28;20371;-64
2023/06/07 10:10:13;;;;;;;;;;;16.20;99.90;;;;;;5033908;28;19931;-64
2023/06/07 10:12:41;;;;;;;;;;;16.20;99.90;;;;;;5033544;28;19918;-66
2023/06/07 10:15:09;;;;;;;;;;;16.20;99.90;;;;;;5033992;28;19917;-62
2023/06/07 10:17:42;;;;;;;;;;;16.10;99.90;;;;;;5034079;28;19915;-66
2023/06/07 10:20:12;;;;;;;;;;;16.10;99.90;;;;;;5034045;28;19921;-65
2023/06/07 10:22:42;;;;;;;;;;;16.10;99.90;;;;;;5014951;28;19916;-66
2023/06/07 10:25:20;;;;;;;;;;;16.10;99.90;;;;;;5014548;28;19914;-62
2023/06/07 10:27:54;;;;;;;;;;;16.00;99.90;;;;;;5014134;28;19913;-65
2023/06/07 10:30:22;;;;;;;;;;;15.90;99.90;;;;;;5024023;28;19909;-65
2023/06/07 10:32:49;;;;;;;;;;;15.90;99.90;;;;;;5034008;28;19917;-64
2023/06/07 10:35:17;;;;;;;;;;;15.90;99.90;;;;;;5016392;28;19909;-64
2023/06/07 10:37:44;;;;;;;;;;;15.80;99.90;;;;;;5033508;28;19975;-64
2023/06/07 10:40:11;;;;;;;;;;;15.70;99.90;;;;;;5032262;28;20319;-65
2023/06/07 10:42:41;;;;;;;;;;;15.70;99.90;;;;;;5013857;28;20263;-64
2023/06/07 10:45:15;;;;;;;;;;;15.60;99.90;;;;;;5013969;28;19920;-65
2023/06/07 10:47:42;;;;;;;;;;;15.60;99.90;;;;;;5013801;28;20359;-66
2023/06/07 10:50:30;;;;;;;;;;;15.60;99.90;;;;;;5016707;28;19961;-65
2023/06/07 10:52:57;;;;;;;;;;;15.50;99.90;;;;;;5033822;28;20002;-65
2023/06/07 10:55:31;;;;;;;;;;;15.50;99.90;;;;;;5033491;28;20365;-61
2023/06/07 10:57:59;;;;;;;;;;;15.40;99.90;;;;;;5022917;28;19920;-64
2023/06/07 11:00:30;;;;;;;;;;;15.40;99.90;;;;;;5016340;28;19920;-63
2023/06/07 11:03:16;;;;;;;;;;;15.40;99.90;;;;;;5033420;28;19910;-61
2023/06/07 11:05:58;;;;;;;;;;;15.40;99.90;;;;;;5022642;28;20258;-63
2023/06/07 11:08:28;;;;;;;;;;;15.40;99.90;;;;;;5033109;28;20422;-61
2023/06/07 11:11:00;;;;;;;;;;;15.40;99.90;;;;;;5031784;28;20297;-61
2023/06/07 11:13:27;;;;;;;;;;;15.30;99.90;;;;;;5033188;28;19963;-61
2023/06/07 11:16:14;;;;;;;;;;;15.40;99.90;;;;;;5033212;28;20008;-63
2023/06/07 11:19:07;;;;;;;;;;;15.40;99.90;;;;;;5032977;28;19917;-62
2023/06/07 11:21:52;;;;;;;;;;;15.40;99.90;;;;;;5032277;28;19921;-62
2023/06/07 11:24:19;;;;;;;;;;;15.40;99.90;;;;;;5033332;28;19984;-62
2023/06/07 11:26:47;;;;;;;;;;;15.40;99.90;;;;;;5015912;28;20417;-61
2023/06/07 11:29:17;;;;;;;;;;;15.50;99.90;;;;;;5013205;28;20031;-61
2023/06/07 11:31:47;;;;;;;;;;;15.50;99.90;;;;;;5016791;28;19914;-62
2023/06/07 11:34:14;;;;;;;;;;;15.50;99.90;;;;;;5013027;28;19910;-64
2023/06/07 11:36:42;;;;;;;;;;;15.50;99.90;;;;;;5012684;28;19914;-61
2023/06/07 11:39:09;;;;;;;;;;;15.50;99.90;;;;;;5013103;28;19914;-61
2023/06/07 11:41:38;;;;;;;;;;;15.50;99.90;;;;;;5031042;28;19917;-63
2023/06/07 11:44:06;;;;;;;;;;;15.50;99.90;;;;;;5029120;28;20003;-65
2023/06/07 11:46:38;;;;;;;;;;;15.50;99.90;;;;;;5012867;28;19924;-64
2023/06/07 11:49:09;;;;;;;;;;;15.60;99.90;;;;;;5013171;28;20338;-65
2023/06/07 11:51:36;;;;;;;;;;;15.50;99.90;;;;;;5027702;28;20263;-66
2023/06/07 11:54:03;;;;;;;;;;;15.50;99.90;;;;;;5021776;28;19913;-65
2023/06/07 11:56:30;;;;;;;;;;;15.50;99.90;;;;;;5012876;28;19913;-66
2023/06/07 11:59:00;;;;;;;;;;;15.50;99.90;;;;;;5015421;28;19921;-61
2023/06/07 12:01:27;;;;;;;;;;;15.50;99.90;;;;;;5022723;28;19917;-63
2023/06/07 12:03:55;;;;;;;;;;;15.50;99.90;;;;;;5030345;28;19967;-64
2023/06/07 12:06:26;;;;;;;;;;;15.50;99.90;;;;;;5031243;28;19909;-64
2023/06/07 12:08:52;;;;;;;;;;;15.40;99.90;;;;;;5032101;28;19963;-64
2023/06/07 12:11:23;;;;;;;;;;;15.50;99.90;;;;;;5031857;28;19917;-66
2023/06/07 12:13:53;;;;;;;;;;;15.40;99.90;;;;;;5031412;28;20339;-64
2023/06/07 12:16:23;;;;;;;;;;;15.40;99.90;;;;;;5032146;28;20441;-66
2023/06/07 12:18:49;;;;;;;;;;;15.40;99.90;;;;;;5031928;28;19920;-66
2023/06/07 12:21:17;;;;;;;;;;;15.40;99.90;;;;;;5031928;28;19917;-63
2023/06/07 12:23:51;;;;;;;;;;;15.40;99.90;;;;;;5032018;28;20274;-64
2023/06/07 12:26:22;;;;;;;;;;;15.40;99.90;;;;;;5032302;28;19963;-65
2023/06/07 12:28:49;;;;;;;;;;;15.30;99.90;;;;;;5032255;28;19909;-63
2023/06/07 12:31:26;;;;;;;;;;;15.30;99.90;;;;;;5031618;28;20012;-63
2023/06/07 12:33:55;;;;;;;;;;;15.40;99.90;;;;;;5032197;28;19909;-63
2023/06/07 12:36:22;;;;;;;;;;;15.40;99.90;;;;;;5032199;28;20362;-65
2023/06/07 12:38:49;;;;;;;;;;;15.40;99.90;;;;;;5032066;28;20266;-62
2023/06/07 12:41:16;;;;;;;;;;;15.30;99.90;;;;;;5032030;28;20375;-65
2023/06/07 12:43:46;;;;;;;;;;;15.30;99.90;;;;;;5031644;28;19909;-63
2023/06/07 12:46:13;;;;;;;;;;;15.40;99.90;;;;;;5031674;28;19913;-65
2023/06/07 12:48:43;;;;;;;;;;;15.30;99.90;;;;;;5031510;28;19928;-62
2023/06/07 12:51:10;;;;;;;;;;;15.30;99.90;;;;;;5032047;28;19987;-61
2023/06/07 12:53:36;;;;;;;;;;;15.30;99.90;;;;;;5032378;28;20373;-61
2023/06/07 12:56:03;;;;;;;;;;;15.30;99.90;;;;;;5032338;28;20431;-64
2023/06/07 12:58:29;;;;;;;;;;;15.40;99.90;;;;;;5031970;28;19959;-62
2023/06/07 13:00:56;;;;;;;;;;;15.30;99.90;;;;;;5032090;28;19949;-62
2023/06/07 13:03:24;;;;;;;;;;;15.30;99.90;;;;;;5030733;28;19921;-61
2023/06/07 13:05:51;;;;;;;;;;;15.30;99.90;;;;;;5031654;28;19915;-61
2023/06/07 13:08:17;;;;;;;;;;;15.30;99.90;;;;;;5031775;28;19913;-63
2023/06/07 13:10:44;;;;;;;;;;;15.40;99.90;;;;;;5032350;28;19913;-62
2023/06/07 13:13:11;;;;;;;;;;;15.30;99.90;;;;;;5031986;28;20290;-62
2023/06/07 13:15:37;;;;;;;;;;;15.40;99.90;;;;;;5032008;28;19913;-64
2023/06/07 13:18:04;;;;;;;;;;;15.40;99.90;;;;;;5031619;28;20374;-65
2023/06/07 13:20:31;;;;;;;;;;;15.40;99.90;;;;;;5031527;28;19953;-61
2023/06/07 13:22:57;;;;;;;;;;;15.40;99.90;;;;;;5031833;28;19909;-62
2023/06/07 13:25:24;;;;;;;;;;;15.50;99.90;;;;;;5035030;28;19909;-63
2023/06/07 13:27:51;;;;;;;;;;;15.40;99.90;;;;;;5035232;28;19909;-61
2023/06/07 13:30:18;;;;;;;;;;;15.30;99.90;;;;;;5035207;28;19917;-62
2023/06/07 13:32:45;;;;;;;;;;;15.40;99.90;;;;;;5035239;28;19916;-61
2023/06/07 13:35:12;;;;;;;;;;;15.30;99.90;;;;;;5035279;28;19906;-63
2023/06/07 13:37:39;;;;;;;;;;;15.30;99.90;;;;;;5034942;28;19913;-65
2023/06/07 13:40:06;;;;;;;;;;;15.30;99.90;;;;;;5035214;28;19959;-61
2023/06/07 13:42:33;;;;;;;;;;;15.30;99.90;;;;;;5035303;28;20370;-62
2023/06/07 13:45:00;;;;;;;;;;;15.30;99.90;;;;;;5034574;28;19917;-63
2023/06/07 13:47:28;;;;;;;;;;;15.30;99.90;;;;;;5034916;28;19910;-63
2023/06/07 13:49:54;;;;;;;;;;;15.40;99.90;;;;;;5034751;28;20008;-62
2023/06/07 13:52:21;;;;;;;;;;;15.30;99.90;;;;;;5034902;28;20358;-62
2023/06/07 13:54:48;;;;;;;;;;;15.40;99.90;;;;;;5035024;28;20277;-62
2023/06/07 13:57:15;;;;;;;;;;;15.30;99.90;;;;;;5034867;28;20351;-65
2023/06/07 13:59:42;;;;;;;;;;;15.30;99.90;;;;;;5034780;28;19913;-62
2023/06/07 14:02:13;;;;;;;;;;;15.30;99.90;;;;;;5034869;28;19913;-62
2023/06/07 14:04:39;;;;;;;;;;;15.30;99.90;;;;;;5034892;28;19996;-63
2023/06/07 14:07:06;;;;;;;;;;;15.30;99.90;;;;;;5034268;28;19913;-63
2023/06/07 14:09:33;;;;;;;;;;;15.30;99.90;;;;;;5034887;28;20008;-63
2023/06/07 14:11:59;;;;;;;;;;;15.30;99.90;;;;;;5034399;28;19909;-63
2023/06/07 14:14:26;;;;;;;;;;;15.20;99.90;;;;;;5034192;28;19924;-64
2023/06/07 14:16:53;;;;;;;;;;;15.20;99.90;;;;;;5034616;28;20012;-63
2023/06/07 14:19:20;;;;;;;;;;;15.10;99.90;;;;;;5034239;28;19917;-66
2023/06/07 14:21:48;;;;;;;;;;;15.10;99.90;;;;;;5034482;28;19909;-65